Tell City, Indiana
Current Conditions -  °F | °C
As of 5:15 AM on Sunday 23 Nov 2014 (Local Time) from KHNB Reporting Station
Broken Clouds Broken Clouds  
Wind Chill: 54°   Ceiling: 3900
Heat Index: 54°   Visibility: 10mi
Dew Point: 39°   Wind: 10mph
Humidity: 58%   Direction: 170°S
Pressure: 29.94"   Gusts: 16mph
Location:  37.95°N, 86.77°W
Report Text: KHNB 231115Z AUTO 17009G14KT 10SM BKN039 12/04 A2994 RMK AO1
Loading
Personal Weather Stations






























Interactive Weather Map New forecast layout! Learn more

10-Day Weather Forecast

Advertisements
Track Severe Weather on mobile